sensor_id;sensor_type;location;lat;lon;timestamp;P1;durP1;ratioP1;P2;durP2;ratioP2
67986;SDS011;54767;53.800;15.956;2023-07-29T00:01:20;6.90;;;4.20;;
67986;SDS011;54767;53.800;15.956;2023-07-29T00:03:47;5.40;;;3.80;;
67986;SDS011;54767;53.800;15.956;2023-07-29T00:06:36;5.10;;;3.60;;
67986;SDS011;54767;53.800;15.956;2023-07-29T00:09:04;3.90;;;3.60;;
67986;SDS011;54767;53.800;15.956;2023-07-29T00:11:31;5.10;;;3.90;;
67986;SDS011;54767;53.800;15.956;2023-07-29T00:14:01;4.30;;;3.70;;
67986;SDS011;54767;53.800;15.956;2023-07-29T00:16:28;5.70;;;3.80;;
67986;SDS011;54767;53.800;15.956;2023-07-29T00:18:55;5.90;;;4.00;;
67986;SDS011;54767;53.800;15.956;2023-07-29T00:21:23;8.30;;;4.10;;
67986;SDS011;54767;53.800;15.956;2023-07-29T00:23:50;7.40;;;3.70;;
67986;SDS011;54767;53.800;15.956;2023-07-29T00:26:38;6.80;;;3.50;;
67986;SDS011;54767;53.800;15.956;2023-07-29T00:29:05;4.90;;;3.60;;
67986;SDS011;54767;53.800;15.956;2023-07-29T00:31:32;4.80;;;4.00;;
67986;SDS011;54767;53.800;15.956;2023-07-29T00:33:59;4.10;;;3.70;;
67986;SDS011;54767;53.800;15.956;2023-07-29T00:36:26;4.80;;;3.80;;
67986;SDS011;54767;53.800;15.956;2023-07-29T00:38:53;6.00;;;4.20;;
67986;SDS011;54767;53.800;15.956;2023-07-29T00:41:21;5.70;;;3.80;;
67986;SDS011;54767;53.800;15.956;2023-07-29T00:43:49;5.60;;;4.30;;
67986;SDS011;54767;53.800;15.956;2023-07-29T00:46:17;6.10;;;4.00;;
67986;SDS011;54767;53.800;15.956;2023-07-29T00:48:48;4.60;;;3.90;;
67986;SDS011;54767;53.800;15.956;2023-07-29T00:51:16;3.90;;;3.60;;
67986;SDS011;54767;53.800;15.956;2023-07-29T00:53:43;4.00;;;3.70;;
67986;SDS011;54767;53.800;15.956;2023-07-29T00:57:25;4.70;;;3.60;;
67986;SDS011;54767;53.800;15.956;2023-07-29T01:00:18;5.90;;;4.00;;
67986;SDS011;54767;53.800;15.956;2023-07-29T01:02:45;4.50;;;3.70;;
67986;SDS011;54767;53.800;15.956;2023-07-29T01:05:14;4.70;;;3.70;;
67986;SDS011;54767;53.800;15.956;2023-07-29T01:10:46;4.80;;;3.70;;
67986;SDS011;54767;53.800;15.956;2023-07-29T01:13:35;6.20;;;3.70;;
67986;SDS011;54767;53.800;15.956;2023-07-29T01:16:09;5.10;;;3.50;;
67986;SDS011;54767;53.800;15.956;2023-07-29T01:18:44;6.20;;;3.70;;
67986;SDS011;54767;53.800;15.956;2023-07-29T01:21:17;5.60;;;3.90;;
67986;SDS011;54767;53.800;15.956;2023-07-29T01:23:46;4.30;;;3.90;;
67986;SDS011;54767;53.800;15.956;2023-07-29T01:26:12;6.40;;;4.20;;
67986;SDS011;54767;53.800;15.956;2023-07-29T01:28:40;5.50;;;4.70;;
67986;SDS011;54767;53.800;15.956;2023-07-29T01:31:13;4.70;;;3.90;;
67986;SDS011;54767;53.800;15.956;2023-07-29T01:34:06;5.40;;;3.90;;
67986;SDS011;54767;53.800;15.956;2023-07-29T01:36:41;5.20;;;3.70;;
67986;SDS011;54767;53.800;15.956;2023-07-29T01:39:14;5.00;;;3.80;;
67986;SDS011;54767;53.800;15.956;2023-07-29T01:41:44;7.80;;;3.90;;
67986;SDS011;54767;53.800;15.956;2023-07-29T01:44:32;7.80;;;4.20;;
67986;SDS011;54767;53.800;15.956;2023-07-29T01:47:00;6.20;;;4.10;;
67986;SDS011;54767;53.800;15.956;2023-07-29T01:49:27;6.50;;;3.80;;
67986;SDS011;54767;53.800;15.956;2023-07-29T01:51:56;7.20;;;4.40;;
67986;SDS011;54767;53.800;15.956;2023-07-29T01:54:24;9.30;;;4.20;;
67986;SDS011;54767;53.800;15.956;2023-07-29T01:56:51;5.60;;;4.50;;
67986;SDS011;54767;53.800;15.956;2023-07-29T01:59:33;6.10;;;4.00;;
67986;SDS011;54767;53.800;15.956;2023-07-29T02:02:00;6.70;;;4.30;;
67986;SDS011;54767;53.800;15.956;2023-07-29T02:04:27;5.50;;;4.10;;
67986;SDS011;54767;53.800;15.956;2023-07-29T02:06:54;5.00;;;3.80;;
67986;SDS011;54767;53.800;15.956;2023-07-29T02:09:21;4.80;;;4.00;;
67986;SDS011;54767;53.800;15.956;2023-07-29T02:11:48;7.80;;;4.30;;
67986;SDS011;54767;53.800;15.956;2023-07-29T02:14:15;7.40;;;4.00;;
67986;SDS011;54767;53.800;15.956;2023-07-29T02:16:42;7.60;;;3.90;;
67986;SDS011;54767;53.800;15.956;2023-07-29T02:19:09;5.30;;;4.30;;
67986;SDS011;54767;53.800;15.956;2023-07-29T02:21:36;6.30;;;4.20;;
67986;SDS011;54767;53.800;15.956;2023-07-29T02:24:03;7.40;;;4.30;;
67986;SDS011;54767;53.800;15.956;2023-07-29T02:26:30;5.90;;;4.30;;
67986;SDS011;54767;53.800;15.956;2023-07-29T02:28:57;5.70;;;4.20;;
67986;SDS011;54767;53.800;15.956;2023-07-29T02:31:24;6.00;;;4.10;;
67986;SDS011;54767;53.800;15.956;2023-07-29T02:33:52;4.80;;;4.30;;
67986;SDS011;54767;53.800;15.956;2023-07-29T02:36:19;8.00;;;4.10;;
67986;SDS011;54767;53.800;15.956;2023-07-29T02:38:46;8.90;;;4.10;;
67986;SDS011;54767;53.800;15.956;2023-07-29T02:41:13;7.60;;;3.90;;
67986;SDS011;54767;53.800;15.956;2023-07-29T02:43:43;6.50;;;4.50;;
67986;SDS011;54767;53.800;15.956;2023-07-29T02:46:10;6.30;;;4.10;;
67986;SDS011;54767;53.800;15.956;2023-07-29T02:48:37;9.00;;;4.60;;
67986;SDS011;54767;53.800;15.956;2023-07-29T02:51:04;6.30;;;4.40;;
67986;SDS011;54767;53.800;15.956;2023-07-29T02:53:31;5.60;;;4.40;;
67986;SDS011;54767;53.800;15.956;2023-07-29T02:55:58;7.20;;;4.80;;
67986;SDS011;54767;53.800;15.956;2023-07-29T02:58:25;6.80;;;4.80;;
67986;SDS011;54767;53.800;15.956;2023-07-29T03:00:52;8.30;;;4.80;;
67986;SDS011;54767;53.800;15.956;2023-07-29T03:03:19;6.00;;;4.70;;
67986;SDS011;54767;53.800;15.956;2023-07-29T03:05:47;6.30;;;4.80;;
67986;SDS011;54767;53.800;15.956;2023-07-29T03:08:14;6.40;;;4.60;;
67986;SDS011;54767;53.800;15.956;2023-07-29T03:10:41;7.80;;;4.70;;
67986;SDS011;54767;53.800;15.956;2023-07-29T03:13:08;5.30;;;4.50;;
67986;SDS011;54767;53.800;15.956;2023-07-29T03:15:35;5.90;;;4.80;;
67986;SDS011;54767;53.800;15.956;2023-07-29T03:18:02;7.50;;;5.10;;
67986;SDS011;54767;53.800;15.956;2023-07-29T03:20:30;8.20;;;4.90;;
67986;SDS011;54767;53.800;15.956;2023-07-29T03:22:56;7.80;;;5.10;;
67986;SDS011;54767;53.800;15.956;2023-07-29T03:25:24;7.80;;;5.20;;
67986;SDS011;54767;53.800;15.956;2023-07-29T03:27:50;5.60;;;4.80;;
67986;SDS011;54767;53.800;15.956;2023-07-29T03:30:21;7.80;;;4.90;;
67986;SDS011;54767;53.800;15.956;2023-07-29T03:32:49;7.90;;;4.60;;
67986;SDS011;54767;53.800;15.956;2023-07-29T03:35:16;6.70;;;4.50;;
67986;SDS011;54767;53.800;15.956;2023-07-29T03:37:43;5.80;;;4.80;;
67986;SDS011;54767;53.800;15.956;2023-07-29T03:40:10;5.60;;;4.70;;
67986;SDS011;54767;53.800;15.956;2023-07-29T03:42:37;7.20;;;4.70;;
67986;SDS011;54767;53.800;15.956;2023-07-29T03:45:04;7.20;;;4.80;;
67986;SDS011;54767;53.800;15.956;2023-07-29T03:47:32;6.30;;;4.70;;
67986;SDS011;54767;53.800;15.956;2023-07-29T03:49:59;5.70;;;4.50;;
67986;SDS011;54767;53.800;15.956;2023-07-29T03:52:26;5.70;;;4.50;;
67986;SDS011;54767;53.800;15.956;2023-07-29T03:54:53;6.50;;;4.50;;
67986;SDS011;54767;53.800;15.956;2023-07-29T03:57:20;6.20;;;4.50;;
67986;SDS011;54767;53.800;15.956;2023-07-29T03:59:47;6.40;;;4.70;;
67986;SDS011;54767;53.800;15.956;2023-07-29T04:02:14;6.30;;;4.60;;
67986;SDS011;54767;53.800;15.956;2023-07-29T04:04:41;6.00;;;4.90;;
67986;SDS011;54767;53.800;15.956;2023-07-29T04:07:09;10.20;;;4.60;;
67986;SDS011;54767;53.800;15.956;2023-07-29T04:09:36;9.10;;;4.90;;
67986;SDS011;54767;53.800;15.956;2023-07-29T04:12:03;6.70;;;5.00;;
67986;SDS011;54767;53.800;15.956;2023-07-29T04:14:30;7.40;;;5.10;;
67986;SDS011;54767;53.800;15.956;2023-07-29T04:16:57;7.40;;;4.50;;
67986;SDS011;54767;53.800;15.956;2023-07-29T04:19:24;8.00;;;4.80;;
67986;SDS011;54767;53.800;15.956;2023-07-29T04:21:51;9.40;;;4.90;;
67986;SDS011;54767;53.800;15.956;2023-07-29T04:24:18;5.20;;;4.70;;
67986;SDS011;54767;53.800;15.956;2023-07-29T04:26:46;6.20;;;4.40;;
67986;SDS011;54767;53.800;15.956;2023-07-29T04:29:13;9.10;;;5.10;;
67986;SDS011;54767;53.800;15.956;2023-07-29T04:31:40;8.40;;;5.00;;
67986;SDS011;54767;53.800;15.956;2023-07-29T04:34:07;7.60;;;5.10;;
67986;SDS011;54767;53.800;15.956;2023-07-29T04:36:34;7.10;;;5.00;;
67986;SDS011;54767;53.800;15.956;2023-07-29T04:39:02;7.50;;;4.70;;
67986;SDS011;54767;53.800;15.956;2023-07-29T04:41:29;7.80;;;4.70;;
67986;SDS011;54767;53.800;15.956;2023-07-29T04:43:56;6.40;;;4.70;;
67986;SDS011;54767;53.800;15.956;2023-07-29T04:46:23;10.00;;;4.90;;
67986;SDS011;54767;53.800;15.956;2023-07-29T04:48:50;5.30;;;4.50;;
67986;SDS011;54767;53.800;15.956;2023-07-29T04:51:16;5.90;;;4.70;;
67986;SDS011;54767;53.800;15.956;2023-07-29T04:53:43;7.50;;;4.40;;
67986;SDS011;54767;53.800;15.956;2023-07-29T04:56:10;8.20;;;4.10;;
67986;SDS011;54767;53.800;15.956;2023-07-29T04:58:37;7.10;;;4.40;;
67986;SDS011;54767;53.800;15.956;2023-07-29T05:01:05;4.60;;;4.00;;
67986;SDS011;54767;53.800;15.956;2023-07-29T05:03:32;5.60;;;3.90;;
67986;SDS011;54767;53.800;15.956;2023-07-29T05:05:59;5.40;;;4.40;;
67986;SDS011;54767;53.800;15.956;2023-07-29T05:08:26;4.60;;;4.00;;
67986;SDS011;54767;53.800;15.956;2023-07-29T05:10:54;5.80;;;4.10;;
67986;SDS011;54767;53.800;15.956;2023-07-29T05:13:21;5.90;;;3.80;;
67986;SDS011;54767;53.800;15.956;2023-07-29T05:15:49;6.40;;;3.70;;
67986;SDS011;54767;53.800;15.956;2023-07-29T05:18:17;5.70;;;3.80;;
67986;SDS011;54767;53.800;15.956;2023-07-29T05:20:44;4.50;;;3.50;;
67986;SDS011;54767;53.800;15.956;2023-07-29T05:23:11;4.80;;;3.70;;
67986;SDS011;54767;53.800;15.956;2023-07-29T05:25:38;3.70;;;3.30;;
67986;SDS011;54767;53.800;15.956;2023-07-29T05:28:05;5.50;;;3.60;;
67986;SDS011;54767;53.800;15.956;2023-07-29T05:30:32;4.70;;;3.60;;
67986;SDS011;54767;53.800;15.956;2023-07-29T05:33:04;4.00;;;3.20;;
67986;SDS011;54767;53.800;15.956;2023-07-29T05:35:31;3.70;;;3.40;;
67986;SDS011;54767;53.800;15.956;2023-07-29T05:37:58;3.80;;;3.40;;
67986;SDS011;54767;53.800;15.956;2023-07-29T05:40:25;3.50;;;3.20;;
67986;SDS011;54767;53.800;15.956;2023-07-29T05:42:52;4.40;;;4.00;;
67986;SDS011;54767;53.800;15.956;2023-07-29T05:45:19;3.60;;;3.30;;
67986;SDS011;54767;53.800;15.956;2023-07-29T05:47:46;3.70;;;3.20;;
67986;SDS011;54767;53.800;15.956;2023-07-29T05:50:14;4.10;;;3.30;;
67986;SDS011;54767;53.800;15.956;2023-07-29T05:52:41;3.30;;;3.00;;
67986;SDS011;54767;53.800;15.956;2023-07-29T05:55:07;3.20;;;3.00;;
67986;SDS011;54767;53.800;15.956;2023-07-29T05:57:34;3.20;;;3.00;;
67986;SDS011;54767;53.800;15.956;2023-07-29T06:00:01;3.40;;;3.10;;
67986;SDS011;54767;53.800;15.956;2023-07-29T06:02:29;3.60;;;3.10;;
67986;SDS011;54767;53.800;15.956;2023-07-29T06:04:56;3.20;;;2.80;;
67986;SDS011;54767;53.800;15.956;2023-07-29T06:07:23;4.40;;;3.00;;
67986;SDS011;54767;53.800;15.956;2023-07-29T06:09:50;2.90;;;2.70;;
67986;SDS011;54767;53.800;15.956;2023-07-29T06:12:18;2.60;;;2.50;;
67986;SDS011;54767;53.800;15.956;2023-07-29T06:14:45;3.00;;;2.80;;
67986;SDS011;54767;53.800;15.956;2023-07-29T06:17:12;2.70;;;2.40;;
67986;SDS011;54767;53.800;15.956;2023-07-29T06:19:39;3.10;;;2.60;;
67986;SDS011;54767;53.800;15.956;2023-07-29T06:22:06;2.60;;;2.50;;
67986;SDS011;54767;53.800;15.956;2023-07-29T06:24:33;3.10;;;2.80;;
67986;SDS011;54767;53.800;15.956;2023-07-29T06:27:01;2.80;;;2.60;;
67986;SDS011;54767;53.800;15.956;2023-07-29T06:29:31;4.10;;;2.70;;
67986;SDS011;54767;53.800;15.956;2023-07-29T06:31:58;2.80;;;2.60;;
67986;SDS011;54767;53.800;15.956;2023-07-29T06:34:25;2.80;;;2.50;;
67986;SDS011;54767;53.800;15.956;2023-07-29T06:36:53;3.50;;;2.60;;
67986;SDS011;54767;53.800;15.956;2023-07-29T06:39:20;4.10;;;2.50;;
67986;SDS011;54767;53.800;15.956;2023-07-29T06:41:47;2.90;;;2.60;;
67986;SDS011;54767;53.800;15.956;2023-07-29T06:44:13;2.60;;;2.40;;
67986;SDS011;54767;53.800;15.956;2023-07-29T06:46:40;2.60;;;2.40;;
67986;SDS011;54767;53.800;15.956;2023-07-29T06:49:07;3.40;;;2.70;;
67986;SDS011;54767;53.800;15.956;2023-07-29T06:51:34;2.70;;;2.50;;
67986;SDS011;54767;53.800;15.956;2023-07-29T06:54:02;3.20;;;2.40;;
67986;SDS011;54767;53.800;15.956;2023-07-29T06:56:29;2.80;;;2.60;;
67986;SDS011;54767;53.800;15.956;2023-07-29T06:58:56;2.60;;;2.40;;
67986;SDS011;54767;53.800;15.956;2023-07-29T07:01:23;2.60;;;2.40;;
67986;SDS011;54767;53.800;15.956;2023-07-29T07:03:50;2.70;;;2.60;;
67986;SDS011;54767;53.800;15.956;2023-07-29T07:06:21;2.40;;;2.20;;
67986;SDS011;54767;53.800;15.956;2023-07-29T07:08:48;4.10;;;2.80;;
67986;SDS011;54767;53.800;15.956;2023-07-29T07:11:26;3.40;;;2.60;;
67986;SDS011;54767;53.800;15.956;2023-07-29T07:13:54;3.30;;;3.00;;
67986;SDS011;54767;53.800;15.956;2023-07-29T07:16:21;3.00;;;2.70;;
67986;SDS011;54767;53.800;15.956;2023-07-29T07:18:48;3.60;;;3.00;;
67986;SDS011;54767;53.800;15.956;2023-07-29T07:21:15;3.00;;;2.80;;
67986;SDS011;54767;53.800;15.956;2023-07-29T07:23:42;3.30;;;2.70;;
67986;SDS011;54767;53.800;15.956;2023-07-29T07:26:10;3.20;;;3.00;;
67986;SDS011;54767;53.800;15.956;2023-07-29T07:28:37;4.40;;;3.00;;
67986;SDS011;54767;53.800;15.956;2023-07-29T07:31:04;3.00;;;2.80;;
67986;SDS011;54767;53.800;15.956;2023-07-29T07:33:31;3.10;;;2.80;;
67986;SDS011;54767;53.800;15.956;2023-07-29T07:35:58;3.70;;;3.20;;
67986;SDS011;54767;53.800;15.956;2023-07-29T07:38:25;4.60;;;3.60;;
67986;SDS011;54767;53.800;15.956;2023-07-29T07:40:55;4.70;;;4.00;;
67986;SDS011;54767;53.800;15.956;2023-07-29T07:43:43;5.50;;;4.00;;
67986;SDS011;54767;53.800;15.956;2023-07-29T07:47:17;3.70;;;3.20;;
67986;SDS011;54767;53.800;15.956;2023-07-29T07:49:44;4.30;;;3.50;;
67986;SDS011;54767;53.800;15.956;2023-07-29T07:52:53;4.30;;;3.60;;
67986;SDS011;54767;53.800;15.956;2023-07-29T07:55:20;3.90;;;3.30;;
67986;SDS011;54767;53.800;15.956;2023-07-29T07:57:46;3.90;;;3.60;;
67986;SDS011;54767;53.800;15.956;2023-07-29T08:00:13;7.60;;;4.00;;
67986;SDS011;54767;53.800;15.956;2023-07-29T08:02:43;5.70;;;3.80;;
67986;SDS011;54767;53.800;15.956;2023-07-29T08:05:10;5.30;;;3.50;;
67986;SDS011;54767;53.800;15.956;2023-07-29T08:07:38;4.80;;;3.20;;
67986;SDS011;54767;53.800;15.956;2023-07-29T08:10:05;3.60;;;3.30;;
67986;SDS011;54767;53.800;15.956;2023-07-29T08:12:33;3.50;;;3.20;;
67986;SDS011;54767;53.800;15.956;2023-07-29T08:15:00;3.70;;;3.30;;
67986;SDS011;54767;53.800;15.956;2023-07-29T08:17:30;4.30;;;3.10;;
67986;SDS011;54767;53.800;15.956;2023-07-29T08:19:58;3.90;;;3.30;;
67986;SDS011;54767;53.800;15.956;2023-07-29T08:22:25;5.10;;;3.50;;
67986;SDS011;54767;53.800;15.956;2023-07-29T08:24:55;3.60;;;3.30;;
67986;SDS011;54767;53.800;15.956;2023-07-29T08:27:33;3.60;;;3.30;;
67986;SDS011;54767;53.800;15.956;2023-07-29T08:30:06;3.30;;;3.00;;
67986;SDS011;54767;53.800;15.956;2023-07-29T08:32:38;3.40;;;3.10;;
67986;SDS011;54767;53.800;15.956;2023-07-29T08:35:05;3.60;;;3.30;;
67986;SDS011;54767;53.800;15.956;2023-07-29T08:37:32;3.50;;;2.90;;
67986;SDS011;54767;53.800;15.956;2023-07-29T08:40:00;3.40;;;3.10;;
67986;SDS011;54767;53.800;15.956;2023-07-29T08:42:28;3.90;;;3.10;;
67986;SDS011;54767;53.800;15.956;2023-07-29T08:45:20;4.10;;;3.40;;
67986;SDS011;54767;53.800;15.956;2023-07-29T08:47:47;3.70;;;3.40;;
67986;SDS011;54767;53.800;15.956;2023-07-29T08:50:41;4.50;;;3.10;;
67986;SDS011;54767;53.800;15.956;2023-07-29T08:53:33;3.80;;;3.30;;
67986;SDS011;54767;53.800;15.956;2023-07-29T08:56:16;4.10;;;3.60;;
67986;SDS011;54767;53.800;15.956;2023-07-29T08:59:23;4.40;;;3.50;;
67986;SDS011;54767;53.800;15.956;2023-07-29T09:02:11;3.60;;;3.30;;
67986;SDS011;54767;53.800;15.956;2023-07-29T09:04:39;3.70;;;3.30;;
67986;SDS011;54767;53.800;15.956;2023-07-29T09:07:06;3.90;;;3.60;;
67986;SDS011;54767;53.800;15.956;2023-07-29T09:09:40;4.80;;;3.40;;
67986;SDS011;54767;53.800;15.956;2023-07-29T09:12:19;4.30;;;3.90;;
67986;SDS011;54767;53.800;15.956;2023-07-29T09:14:51;4.00;;;3.70;;
67986;SDS011;54767;53.800;15.956;2023-07-29T09:17:24;3.20;;;3.00;;
67986;SDS011;54767;53.800;15.956;2023-07-29T09:19:55;3.40;;;3.20;;
67986;SDS011;54767;53.800;15.956;2023-07-29T09:22:22;4.20;;;3.10;;
67986;SDS011;54767;53.800;15.956;2023-07-29T09:24:51;3.30;;;3.10;;
67986;SDS011;54767;53.800;15.956;2023-07-29T09:27:28;3.20;;;3.00;;
67986;SDS011;54767;53.800;15.956;2023-07-29T09:29:58;3.40;;;3.10;;
67986;SDS011;54767;53.800;15.956;2023-07-29T09:32:26;3.30;;;3.10;;
67986;SDS011;54767;53.800;15.956;2023-07-29T09:34:54;4.60;;;3.20;;
67986;SDS011;54767;53.800;15.956;2023-07-29T09:37:21;3.60;;;3.30;;
67986;SDS011;54767;53.800;15.956;2023-07-29T09:39:51;3.30;;;3.00;;
67986;SDS011;54767;53.800;15.956;2023-07-29T09:42:22;3.50;;;3.20;;
67986;SDS011;54767;53.800;15.956;2023-07-29T09:44:52;3.30;;;3.00;;
67986;SDS011;54767;53.800;15.956;2023-07-29T09:47:22;3.10;;;2.80;;
67986;SDS011;54767;53.800;15.956;2023-07-29T09:49:57;3.30;;;3.00;;
67986;SDS011;54767;53.800;15.956;2023-07-29T09:52:27;3.60;;;3.10;;
67986;SDS011;54767;53.800;15.956;2023-07-29T09:54:55;3.60;;;3.20;;
67986;SDS011;54767;53.800;15.956;2023-07-29T09:57:23;3.10;;;2.90;;
67986;SDS011;54767;53.800;15.956;2023-07-29T09:59:57;2.70;;;2.50;;
67986;SDS011;54767;53.800;15.956;2023-07-29T10:02:27;3.40;;;2.80;;
67986;SDS011;54767;53.800;15.956;2023-07-29T10:08:37;3.00;;;2.80;;
67986;SDS011;54767;53.800;15.956;2023-07-29T10:15:20;3.00;;;2.50;;
67986;SDS011;54767;53.800;15.956;2023-07-29T10:18:07;2.80;;;2.40;;
67986;SDS011;54767;53.800;15.956;2023-07-29T10:21:00;2.50;;;2.30;;
67986;SDS011;54767;53.800;15.956;2023-07-29T10:23:32;2.50;;;2.30;;
67986;SDS011;54767;53.800;15.956;2023-07-29T10:26:05;3.20;;;2.40;;
67986;SDS011;54767;53.800;15.956;2023-07-29T10:28:39;6.10;;;2.70;;
67986;SDS011;54767;53.800;15.956;2023-07-29T10:31:12;2.50;;;2.30;;
67986;SDS011;54767;53.800;15.956;2023-07-29T10:33:42;2.70;;;2.50;;
67986;SDS011;54767;53.800;15.956;2023-07-29T10:36:11;2.70;;;2.50;;
67986;SDS011;54767;53.800;15.956;2023-07-29T10:38:40;5.10;;;2.60;;
67986;SDS011;54767;53.800;15.956;2023-07-29T10:41:11;3.00;;;2.50;;
67986;SDS011;54767;53.800;15.956;2023-07-29T10:43:45;2.90;;;2.50;;
67986;SDS011;54767;53.800;15.956;2023-07-29T10:46:55;2.70;;;2.60;;
67986;SDS011;54767;53.800;15.956;2023-07-29T10:53:48;3.10;;;2.80;;
67986;SDS011;54767;53.800;15.956;2023-07-29T10:57:01;2.90;;;2.70;;
67986;SDS011;54767;53.800;15.956;2023-07-29T10:59:32;2.90;;;2.70;;
67986;SDS011;54767;53.800;15.956;2023-07-29T11:02:28;2.80;;;2.60;;
67986;SDS011;54767;53.800;15.956;2023-07-29T11:04:56;2.80;;;2.60;;
67986;SDS011;54767;53.800;15.956;2023-07-29T11:07:28;2.80;;;2.60;;
67986;SDS011;54767;53.800;15.956;2023-07-29T11:09:59;2.90;;;2.70;;
67986;SDS011;54767;53.800;15.956;2023-07-29T11:15:28;3.00;;;2.80;;
67986;SDS011;54767;53.800;15.956;2023-07-29T11:17:59;2.90;;;2.70;;
67986;SDS011;54767;53.800;15.956;2023-07-29T11:20:31;3.20;;;3.00;;
67986;SDS011;54767;53.800;15.956;2023-07-29T11:23:01;3.00;;;2.80;;
67986;SDS011;54767;53.800;15.956;2023-07-29T11:25:30;3.10;;;2.80;;
67986;SDS011;54767;53.800;15.956;2023-07-29T11:28:00;2.80;;;2.60;;
67986;SDS011;54767;53.800;15.956;2023-07-29T11:30:33;4.50;;;3.60;;
67986;SDS011;54767;53.800;15.956;2023-07-29T11:33:00;3.50;;;3.20;;
67986;SDS011;54767;53.800;15.956;2023-07-29T11:37:58;2.90;;;2.70;;
67986;SDS011;54767;53.800;15.956;2023-07-29T11:40:30;3.30;;;2.70;;
67986;SDS011;54767;53.800;15.956;2023-07-29T11:42:57;3.10;;;2.90;;
67986;SDS011;54767;53.800;15.956;2023-07-29T11:45:24;3.10;;;2.80;;
67986;SDS011;54767;53.800;15.956;2023-07-29T11:48:01;3.70;;;3.30;;
67986;SDS011;54767;53.800;15.956;2023-07-29T11:50:29;4.10;;;2.90;;
67986;SDS011;54767;53.800;15.956;2023-07-29T11:52:56;3.70;;;3.00;;
67986;SDS011;54767;53.800;15.956;2023-07-29T11:55:24;3.50;;;3.20;;
67986;SDS011;54767;53.800;15.956;2023-07-29T11:57:51;3.60;;;3.30;;
67986;SDS011;54767;53.800;15.956;2023-07-29T12:00:19;3.30;;;3.10;;
67986;SDS011;54767;53.800;15.956;2023-07-29T12:02:47;3.30;;;3.00;;
67986;SDS011;54767;53.800;15.956;2023-07-29T12:05:16;3.70;;;3.20;;
67986;SDS011;54767;53.800;15.956;2023-07-29T12:07:45;3.50;;;3.20;;
67986;SDS011;54767;53.800;15.956;2023-07-29T12:10:12;3.00;;;2.80;;
67986;SDS011;54767;53.800;15.956;2023-07-29T12:12:46;3.50;;;3.20;;
67986;SDS011;54767;53.800;15.956;2023-07-29T12:15:24;3.60;;;3.30;;
67986;SDS011;54767;53.800;15.956;2023-07-29T12:17:53;3.40;;;3.20;;
67986;SDS011;54767;53.800;15.956;2023-07-29T12:20:23;3.20;;;2.90;;
67986;SDS011;54767;53.800;15.956;2023-07-29T12:22:54;3.50;;;3.20;;
67986;SDS011;54767;53.800;15.956;2023-07-29T12:25:44;4.70;;;3.40;;
67986;SDS011;54767;53.800;15.956;2023-07-29T12:28:15;3.60;;;3.20;;
67986;SDS011;54767;53.800;15.956;2023-07-29T12:31:31;3.40;;;3.10;;
67986;SDS011;54767;53.800;15.956;2023-07-29T12:34:18;3.50;;;3.20;;
67986;SDS011;54767;53.800;15.956;2023-07-29T12:36:55;3.60;;;3.30;;
67986;SDS011;54767;53.800;15.956;2023-07-29T12:39:49;3.50;;;3.30;;
67986;SDS011;54767;53.800;15.956;2023-07-29T12:43:05;3.20;;;3.00;;
67986;SDS011;54767;53.800;15.956;2023-07-29T12:45:52;3.40;;;3.10;;
67986;SDS011;54767;53.800;15.956;2023-07-29T12:48:20;3.60;;;3.30;;
67986;SDS011;54767;53.800;15.956;2023-07-29T12:50:49;3.40;;;3.10;;
67986;SDS011;54767;53.800;15.956;2023-07-29T12:53:18;3.60;;;3.30;;
67986;SDS011;54767;53.800;15.956;2023-07-29T12:56:02;3.40;;;3.10;;
67986;SDS011;54767;53.800;15.956;2023-07-29T12:58:30;3.50;;;3.10;;
67986;SDS011;54767;53.800;15.956;2023-07-29T13:00:57;4.20;;;3.40;;
67986;SDS011;54767;53.800;15.956;2023-07-29T13:03:24;3.50;;;3.20;;
67986;SDS011;54767;53.800;15.956;2023-07-29T13:05:54;3.50;;;3.20;;
67986;SDS011;54767;53.800;15.956;2023-07-29T13:08:22;3.60;;;3.30;;
67986;SDS011;54767;53.800;15.956;2023-07-29T13:10:50;3.40;;;3.20;;
67986;SDS011;54767;53.800;15.956;2023-07-29T13:13:17;3.30;;;3.10;;
67986;SDS011;54767;53.800;15.956;2023-07-29T13:15:45;3.70;;;3.40;;
67986;SDS011;54767;53.800;15.956;2023-07-29T13:18:15;3.80;;;3.50;;
67986;SDS011;54767;53.800;15.956;2023-07-29T13:21:12;4.10;;;3.70;;
67986;SDS011;54767;53.800;15.956;2023-07-29T13:24:50;4.20;;;3.80;;
67986;SDS011;54767;53.800;15.956;2023-07-29T13:27:18;4.10;;;3.70;;
67986;SDS011;54767;53.800;15.956;2023-07-29T13:29:48;4.90;;;4.20;;
67986;SDS011;54767;53.800;15.956;2023-07-29T13:53:41;4.50;;;4.10;;
67986;SDS011;54767;53.800;15.956;2023-07-29T13:56:50;5.10;;;4.60;;
67986;SDS011;54767;53.800;15.956;2023-07-29T14:04:13;5.30;;;4.90;;
67986;SDS011;54767;53.800;15.956;2023-07-29T14:07:15;5.80;;;5.00;;
67986;SDS011;54767;53.800;15.956;2023-07-29T14:13:13;4.60;;;4.20;;
67986;SDS011;54767;53.800;15.956;2023-07-29T15:26:37;7.30;;;4.60;;
67986;SDS011;54767;53.800;15.956;2023-07-29T15:29:05;6.30;;;3.40;;
67986;SDS011;54767;53.800;15.956;2023-07-29T15:31:36;3.70;;;2.50;;
67986;SDS011;54767;53.800;15.956;2023-07-29T15:34:06;4.20;;;2.20;;
67986;SDS011;54767;53.800;15.956;2023-07-29T15:36:35;2.50;;;2.20;;
67986;SDS011;54767;53.800;15.956;2023-07-29T15:39:03;2.00;;;1.70;;
67986;SDS011;54767;53.800;15.956;2023-07-29T15:47:03;3.40;;;1.80;;
67986;SDS011;54767;53.800;15.956;2023-07-29T15:50:22;1.80;;;1.60;;
67986;SDS011;54767;53.800;15.956;2023-07-29T15:53:24;2.70;;;1.80;;
67986;SDS011;54767;53.800;15.956;2023-07-29T15:57:39;3.80;;;1.70;;
67986;SDS011;54767;53.800;15.956;2023-07-29T16:00:17;2.10;;;1.70;;
67986;SDS011;54767;53.800;15.956;2023-07-29T16:03:12;1.60;;;1.30;;
67986;SDS011;54767;53.800;15.956;2023-07-29T16:05:45;3.90;;;1.80;;
67986;SDS011;54767;53.800;15.956;2023-07-29T16:08:18;4.00;;;1.60;;
67986;SDS011;54767;53.800;15.956;2023-07-29T16:10:48;1.70;;;1.30;;
67986;SDS011;54767;53.800;15.956;2023-07-29T16:13:15;2.40;;;1.60;;
67986;SDS011;54767;53.800;15.956;2023-07-29T16:15:49;2.40;;;1.60;;
67986;SDS011;54767;53.800;15.956;2023-07-29T16:18:16;4.30;;;1.80;;
67986;SDS011;54767;53.800;15.956;2023-07-29T16:20:49;2.00;;;1.90;;
67986;SDS011;54767;53.800;15.956;2023-07-29T16:23:56;2.60;;;2.00;;
67986;SDS011;54767;53.800;15.956;2023-07-29T16:26:24;3.90;;;1.70;;
67986;SDS011;54767;53.800;15.956;2023-07-29T16:28:59;3.30;;;2.10;;
67986;SDS011;54767;53.800;15.956;2023-07-29T16:31:29;3.40;;;2.00;;
67986;SDS011;54767;53.800;15.956;2023-07-29T16:34:59;2.30;;;1.90;;
67986;SDS011;54767;53.800;15.956;2023-07-29T16:38:25;4.20;;;2.10;;
67986;SDS011;54767;53.800;15.956;2023-07-29T16:42:05;3.30;;;1.90;;
67986;SDS011;54767;53.800;15.956;2023-07-29T16:44:34;3.10;;;2.10;;
67986;SDS011;54767;53.800;15.956;2023-07-29T16:48:22;2.50;;;1.80;;
67986;SDS011;54767;53.800;15.956;2023-07-29T16:52:08;2.30;;;1.70;;
67986;SDS011;54767;53.800;15.956;2023-07-29T16:54:36;3.10;;;1.80;;
67986;SDS011;54767;53.800;15.956;2023-07-29T16:57:05;2.50;;;1.80;;
67986;SDS011;54767;53.800;15.956;2023-07-29T16:59:33;2.60;;;1.70;;
67986;SDS011;54767;53.800;15.956;2023-07-29T17:02:08;3.20;;;2.00;;
67986;SDS011;54767;53.800;15.956;2023-07-29T17:04:57;1.70;;;1.60;;
67986;SDS011;54767;53.800;15.956;2023-07-29T17:07:27;3.40;;;2.20;;
67986;SDS011;54767;53.800;15.956;2023-07-29T17:09:54;2.80;;;2.00;;
67986;SDS011;54767;53.800;15.956;2023-07-29T17:12:28;2.50;;;2.10;;
67986;SDS011;54767;53.800;15.956;2023-07-29T17:15:39;3.80;;;2.20;;